createdAt,value
2022-08-17T00:00:38.022Z,2.00
2022-08-17T00:03:10.476Z,2.38
2022-08-17T00:05:44.775Z,2.47
2022-08-17T00:10:42.250Z,2.30
2022-08-17T00:13:14.959Z,2.45
2022-08-17T00:15:43.307Z,2.38
2022-08-17T00:19:06.566Z,1.95
2022-08-17T00:21:03.784Z,2.10
2022-08-17T00:23:31.539Z,2.10
2022-08-17T00:25:59.578Z,2.30
2022-08-17T00:28:27.561Z,1.92
2022-08-17T00:31:01.400Z,2.30
2022-08-17T00:33:32.861Z,2.47
2022-08-17T00:36:05.811Z,2.30
2022-08-17T00:38:35.101Z,2.17
2022-08-17T00:41:08.187Z,2.38
2022-08-17T00:43:41.572Z,2.30
2022-08-17T00:46:14.437Z,2.27
2022-08-17T00:48:43.958Z,2.08
2022-08-17T00:51:24.107Z,2.20
2022-08-17T00:53:59.252Z,2.10
2022-08-17T00:56:35.315Z,2.60
2022-08-17T00:59:04.987Z,2.45
2022-08-17T01:01:34.378Z,2.40
2022-08-17T01:04:05.005Z,2.15
2022-08-17T01:06:34.921Z,1.75
2022-08-17T01:09:04.586Z,2.08
2022-08-17T01:11:35.200Z,2.00
2022-08-17T01:14:03.212Z,2.33
2022-08-17T01:16:33.222Z,2.60
2022-08-17T01:19:07.409Z,2.10
2022-08-17T01:21:47.807Z,2.03
2022-08-17T01:24:17.802Z,2.28
2022-08-17T01:26:47.093Z,2.72
2022-08-17T01:29:17.512Z,2.20
2022-08-17T01:31:51.619Z,2.35
2022-08-17T01:34:20.118Z,2.25
2022-08-17T01:36:50.730Z,1.98
2022-08-17T01:39:27.996Z,2.50
2022-08-17T01:42:06.525Z,2.55
2022-08-17T01:44:34.395Z,2.00
2022-08-17T01:47:06.939Z,2.63
2022-08-17T01:49:35.043Z,2.25
2022-08-17T01:52:09.361Z,2.90
2022-08-17T01:57:10.120Z,2.28
2022-08-17T01:59:38.073Z,2.90
2022-08-17T02:02:07.399Z,3.05
2022-08-17T02:04:35.869Z,2.78
2022-08-17T02:07:03.718Z,2.83
2022-08-17T02:09:31.749Z,2.50
2022-08-17T02:12:47.941Z,2.70
2022-08-17T02:14:51.673Z,2.83
2022-08-17T02:17:19.438Z,2.72
2022-08-17T02:19:47.238Z,2.30
2022-08-17T02:22:18.134Z,2.90
2022-08-17T02:24:59.901Z,2.60
2022-08-17T02:27:31.560Z,2.90
2022-08-17T02:29:59.388Z,2.88
2022-08-17T02:32:28.834Z,2.50
2022-08-17T02:34:57.245Z,2.70
2022-08-17T02:37:25.611Z,2.92
2022-08-17T02:39:53.770Z,2.75
2022-08-17T02:42:28.411Z,2.47
2022-08-17T02:44:57.646Z,2.35
2022-08-17T02:47:25.585Z,2.30
2022-08-17T02:49:55.611Z,2.85
2022-08-17T02:52:53.270Z,2.55
2022-08-17T02:55:21.478Z,2.67
2022-08-17T02:57:51.029Z,2.33
2022-08-17T03:00:24.577Z,2.47
2022-08-17T03:02:53.082Z,2.77
2022-08-17T03:05:24.337Z,2.80
2022-08-17T03:07:53.711Z,2.88
2022-08-17T03:10:24.541Z,2.53
2022-08-17T03:12:55.056Z,2.55
2022-08-17T03:15:27.697Z,2.38
2022-08-17T03:17:56.618Z,2.70
2022-08-17T03:20:26.487Z,2.70
2022-08-17T03:23:02.906Z,2.80
2022-08-17T03:25:35.647Z,2.75
2022-08-17T03:28:04.589Z,2.67
2022-08-17T03:30:35.120Z,2.28
2022-08-17T03:33:06.367Z,2.63
2022-08-17T03:35:37.536Z,2.60
2022-08-17T03:38:06.119Z,2.58
2022-08-17T03:40:58.784Z,2.22
2022-08-17T03:43:23.708Z,2.50
2022-08-17T03:46:28.659Z,2.60
2022-08-17T03:49:15.767Z,2.50
2022-08-17T03:52:01.247Z,2.22
2022-08-17T03:54:46.477Z,2.35
2022-08-17T03:57:14.551Z,2.70
2022-08-17T03:59:43.063Z,2.50
2022-08-17T04:02:19.477Z,2.58
2022-08-17T04:07:19.220Z,2.20
2022-08-17T04:09:47.071Z,2.45
2022-08-17T04:12:16.832Z,2.20
2022-08-17T04:14:53.088Z,2.28
2022-08-17T04:17:26.357Z,2.50
2022-08-17T04:19:55.926Z,2.90
2022-08-17T04:22:30.441Z,2.65
2022-08-17T04:25:05.062Z,2.60
2022-08-17T04:27:33.008Z,2.53
2022-08-17T04:30:00.855Z,2.00
2022-08-17T04:33:03.387Z,2.13
2022-08-17T04:35:23.657Z,2.47
2022-08-17T04:37:52.280Z,2.30
2022-08-17T04:40:40.159Z,2.80
2022-08-17T04:43:11.812Z,3.17
2022-08-17T04:45:55.295Z,2.60
2022-08-17T04:48:36.456Z,2.72
2022-08-17T04:51:10.358Z,2.72
2022-08-17T04:53:40.281Z,3.00
2022-08-17T04:56:15.985Z,2.00
2022-08-17T04:58:45.779Z,2.65
2022-08-17T05:01:13.836Z,2.25
2022-08-17T05:03:43.606Z,2.95
2022-08-17T05:06:12.041Z,2.60
2022-08-17T05:08:40.380Z,2.63
2022-08-17T05:11:08.836Z,2.55
2022-08-17T05:13:36.564Z,2.55
2022-08-17T05:16:07.075Z,2.58
2022-08-17T05:18:34.916Z,2.10
2022-08-17T05:21:04.033Z,2.33
2022-08-17T05:23:42.246Z,2.88
2022-08-17T05:26:26.319Z,2.00
2022-08-17T05:28:59.476Z,2.33
2022-08-17T05:31:29.271Z,2.47
2022-08-17T05:33:57.449Z,2.20
2022-08-17T05:36:41.640Z,2.40
2022-08-17T05:39:16.185Z,2.47
2022-08-17T05:41:47.742Z,2.30
2022-08-17T05:44:15.855Z,2.45
2022-08-17T05:46:50.667Z,3.00
2022-08-17T05:49:26.993Z,2.58
2022-08-17T05:52:19.903Z,2.65
2022-08-17T05:55:15.029Z,2.72
2022-08-17T05:58:05.706Z,2.05
2022-08-17T06:00:46.314Z,2.60
2022-08-17T06:03:37.661Z,2.55
2022-08-17T06:06:23.146Z,2.35
2022-08-17T06:09:08.654Z,2.42
2022-08-17T06:11:46.227Z,2.97
2022-08-17T06:14:33.781Z,2.80
2022-08-17T06:17:07.037Z,2.17
2022-08-17T06:19:41.306Z,2.97
2022-08-17T06:24:47.564Z,2.60
2022-08-17T06:27:26.781Z,2.60
2022-08-17T06:30:04.009Z,2.25
2022-08-17T06:32:32.067Z,2.22
2022-08-17T06:35:04.426Z,2.90
2022-08-17T06:37:56.751Z,3.13
2022-08-17T06:40:51.967Z,2.15
2022-08-17T06:43:35.116Z,3.33
2022-08-17T06:46:11.861Z,3.15
2022-08-17T06:48:48.313Z,2.55
2022-08-17T06:51:28.812Z,2.58
2022-08-17T06:54:06.829Z,3.20
2022-08-17T06:56:53.835Z,3.10
2022-08-17T06:59:34.764Z,2.72
2022-08-17T07:02:51.094Z,2.58
2022-08-17T07:05:26.182Z,2.90
2022-08-17T07:08:03.716Z,2.72
2022-08-17T07:10:40.536Z,3.13
2022-08-17T07:13:30.679Z,2.80
2022-08-17T07:16:14.607Z,2.75
2022-08-17T07:18:43.789Z,3.03
2022-08-17T07:21:34.276Z,3.22
2022-08-17T07:24:29.914Z,3.03
2022-08-17T07:27:13.275Z,2.92
2022-08-17T07:29:48.734Z,3.45
2022-08-17T07:32:22.672Z,2.53
2022-08-17T07:35:18.184Z,2.72
2022-08-17T07:37:53.993Z,3.00
2022-08-17T07:40:31.062Z,3.00
2022-08-17T07:43:25.995Z,3.30
2022-08-17T07:48:52.597Z,2.67
2022-08-17T07:51:31.131Z,3.40
2022-08-17T07:54:14.493Z,3.13
2022-08-17T07:56:48.935Z,3.13
2022-08-17T07:59:23.407Z,3.03
2022-08-17T08:02:31.741Z,2.83
2022-08-17T08:05:10.022Z,3.50
2022-08-17T08:07:43.181Z,3.15
2022-08-17T08:10:16.743Z,2.70
2022-08-17T08:12:47.802Z,3.20
2022-08-17T08:15:20.162Z,3.03
2022-08-17T08:17:53.994Z,2.88
2022-08-17T08:20:53.535Z,3.03
2022-08-17T08:23:40.888Z,2.65
2022-08-17T08:26:28.351Z,2.90
2022-08-17T08:29:12.428Z,2.95
2022-08-17T08:32:03.407Z,2.55
2022-08-17T08:35:02.889Z,2.28
2022-08-17T08:37:46.298Z,2.92
2022-08-17T08:40:38.261Z,3.20
2022-08-17T08:43:23.008Z,2.30
2022-08-17T08:46:01.640Z,2.50
2022-08-17T08:49:12.457Z,3.03
2022-08-17T08:51:55.321Z,2.72
2022-08-17T08:54:39.227Z,2.65
2022-08-17T08:57:26.840Z,2.88
2022-08-17T09:00:12.707Z,2.78
2022-08-17T09:03:19.994Z,2.50
2022-08-17T09:06:32.135Z,2.13
2022-08-17T09:09:18.777Z,2.35
2022-08-17T09:12:01.126Z,2.40
2022-08-17T09:14:46.603Z,2.35
2022-08-17T09:17:21.466Z,2.45
2022-08-17T09:19:57.188Z,2.75
2022-08-17T09:22:37.122Z,2.25
2022-08-17T09:25:13.429Z,2.55
2022-08-17T09:27:54.745Z,2.38
2022-08-17T09:30:23.799Z,2.63
2022-08-17T09:32:58.795Z,2.40
2022-08-17T09:35:37.043Z,2.70
2022-08-17T09:38:22.157Z,2.20
2022-08-17T09:41:02.385Z,2.30
2022-08-17T09:43:43.634Z,2.70
2022-08-17T09:46:20.675Z,2.40
2022-08-17T09:48:59.697Z,2.15
2022-08-17T09:51:37.017Z,2.03
2022-08-17T09:54:36.877Z,2.10
2022-08-17T09:57:29.279Z,2.40
2022-08-17T10:00:20.346Z,2.10
2022-08-17T10:03:28.150Z,1.98
2022-08-17T10:06:08.776Z,2.20
2022-08-17T10:08:51.858Z,2.10
2022-08-17T10:11:52.535Z,2.17
2022-08-17T10:14:43.674Z,2.20
2022-08-17T10:17:26.895Z,2.40
2022-08-17T10:20:07.069Z,2.58
2022-08-17T10:23:05.192Z,2.20
2022-08-17T10:25:56.793Z,2.33
2022-08-17T10:28:30.506Z,2.33
2022-08-17T10:31:33.068Z,2.78
2022-08-17T10:34:36.211Z,2.53
2022-08-17T10:40:17.368Z,2.30
2022-08-17T10:42:52.682Z,2.40
2022-08-17T10:45:33.017Z,2.60
2022-08-17T10:48:26.978Z,2.40
2022-08-17T10:51:07.757Z,2.40
2022-08-17T10:54:01.492Z,2.22
2022-08-17T10:56:50.307Z,2.10
2022-08-17T10:59:55.402Z,2.47
2022-08-17T11:05:19.015Z,1.90
2022-08-17T11:08:37.558Z,1.90
2022-08-17T11:11:36.123Z,2.42
2022-08-17T11:14:34.781Z,2.50
2022-08-17T11:17:22.809Z,2.55
2022-08-17T11:20:32.636Z,1.90
2022-08-17T11:23:32.460Z,2.42
2022-08-17T11:26:08.171Z,2.00
2022-08-17T11:28:52.644Z,2.40
2022-08-17T11:31:38.323Z,2.38
2022-08-17T11:34:18.397Z,2.17
2022-08-17T11:37:37.627Z,2.40
2022-08-17T11:40:41.078Z,2.55
2022-08-17T11:43:55.479Z,2.65
2022-08-17T11:46:51.744Z,2.30
2022-08-17T11:49:53.163Z,2.15
2022-08-17T11:52:42.259Z,2.58
2022-08-17T11:56:04.983Z,2.03
2022-08-17T11:58:40.518Z,2.55
2022-08-17T12:01:12.334Z,2.00
2022-08-17T12:03:54.459Z,2.30
2022-08-17T12:06:40.841Z,2.63
2022-08-17T12:09:17.893Z,2.10
2022-08-17T12:12:12.841Z,2.60
2022-08-17T12:15:10.945Z,2.20
2022-08-17T12:17:42.600Z,2.22
2022-08-17T12:20:23.351Z,2.00
2022-08-17T12:23:04.876Z,2.20
2022-08-17T12:25:39.941Z,1.83
2022-08-17T12:28:26.497Z,2.10
2022-08-17T12:30:57.214Z,2.15
2022-08-17T12:33:28.882Z,2.78
2022-08-17T12:36:02.685Z,2.15
2022-08-17T12:38:34.896Z,2.50
2022-08-17T12:41:20.933Z,2.60
2022-08-17T12:44:01.873Z,2.25
2022-08-17T12:46:33.527Z,2.33
2022-08-17T12:49:30.468Z,2.53
2022-08-17T12:52:12.166Z,2.58
2022-08-17T12:55:12.050Z,2.40
2022-08-17T12:57:44.437Z,2.30
2022-08-17T13:00:20.947Z,2.58
2022-08-17T13:02:53.760Z,2.47
2022-08-17T13:05:27.499Z,2.15
2022-08-17T13:07:57.649Z,2.42
2022-08-17T13:10:32.737Z,2.33
2022-08-17T13:13:04.817Z,2.55
2022-08-17T13:15:44.810Z,2.75
2022-08-17T13:18:39.490Z,2.38
2022-08-17T13:21:13.760Z,2.60
2022-08-17T13:23:50.861Z,2.60
2022-08-17T13:26:32.431Z,2.50
2022-08-17T13:29:02.187Z,2.58
2022-08-17T13:31:52.434Z,2.58
2022-08-17T13:35:07.822Z,2.60
2022-08-17T13:37:36.563Z,2.17
2022-08-17T13:40:33.112Z,2.70
2022-08-17T13:43:03.225Z,2.50
2022-08-17T13:45:50.377Z,2.33
2022-08-17T13:48:30.091Z,2.42
2022-08-17T13:51:24.986Z,2.35
2022-08-17T13:54:01.850Z,2.47
2022-08-17T13:56:46.199Z,2.90
2022-08-17T13:59:36.353Z,2.30
2022-08-17T14:02:18.962Z,2.40
2022-08-17T14:04:49.401Z,2.15
2022-08-17T14:07:34.723Z,2.47
2022-08-17T14:10:10.325Z,2.25
2022-08-17T14:12:42.638Z,2.83
2022-08-17T14:15:13.877Z,2.42
2022-08-17T14:17:42.072Z,2.17
2022-08-17T14:20:14.446Z,2.50
2022-08-17T14:22:48.170Z,2.60
2022-08-17T14:25:20.776Z,2.47
2022-08-17T14:27:53.677Z,2.35
2022-08-17T14:30:25.064Z,2.50
2022-08-17T14:32:54.786Z,2.33
2022-08-17T14:35:27.904Z,2.15
2022-08-17T14:37:56.292Z,2.50
2022-08-17T14:40:25.697Z,2.20
2022-08-17T14:42:55.873Z,2.75
2022-08-17T14:45:30.003Z,2.47
2022-08-17T14:48:02.584Z,2.40
2022-08-17T14:50:31.963Z,2.45
2022-08-17T14:53:04.298Z,2.28
2022-08-17T14:55:32.748Z,2.30
2022-08-17T14:58:00.860Z,2.35
2022-08-17T15:00:28.723Z,2.67
2022-08-17T15:03:00.811Z,2.50
2022-08-17T15:05:33.346Z,2.58
2022-08-17T15:08:02.369Z,2.50
2022-08-17T15:10:31.584Z,2.65
2022-08-17T15:13:00.738Z,2.63
2022-08-17T15:15:30.164Z,2.60
2022-08-17T15:17:59.630Z,2.58
2022-08-17T15:20:30.895Z,2.80
2022-08-17T15:22:59.708Z,2.45
2022-08-17T15:25:31.571Z,2.50
2022-08-17T15:28:00.567Z,2.53
2022-08-17T15:30:30.069Z,2.42
2022-08-17T15:32:59.743Z,2.80
2022-08-17T15:35:33.399Z,2.88
2022-08-17T15:38:11.321Z,2.67
2022-08-17T15:40:43.050Z,2.60
2022-08-17T15:43:15.519Z,2.55
2022-08-17T15:45:44.582Z,2.28
2022-08-17T15:48:40.516Z,2.38
2022-08-17T15:51:14.393Z,2.85
2022-08-17T15:53:44.699Z,2.47
2022-08-17T15:56:14.892Z,2.45
2022-08-17T15:58:46.463Z,2.90
2022-08-17T16:01:27.880Z,2.63
2022-08-17T16:04:26.889Z,2.33
2022-08-17T16:06:56.443Z,2.42
2022-08-17T16:09:24.223Z,2.10
2022-08-17T16:11:55.655Z,2.50
2022-08-17T16:14:24.083Z,2.80
2022-08-17T16:16:52.680Z,2.88
2022-08-17T16:19:20.426Z,2.88
2022-08-17T16:21:48.229Z,1.92
2022-08-17T16:24:17.376Z,2.47
2022-08-17T16:26:45.261Z,2.67
2022-08-17T16:29:13.316Z,2.80
2022-08-17T16:31:42.368Z,2.58
2022-08-17T16:34:16.699Z,2.60
2022-08-17T16:36:54.996Z,2.33
2022-08-17T16:39:26.935Z,2.38
2022-08-17T16:41:55.732Z,2.38
2022-08-17T16:44:23.611Z,2.50
2022-08-17T16:46:51.515Z,2.53
2022-08-17T16:49:35.612Z,2.40
2022-08-17T16:52:10.851Z,2.70
2022-08-17T16:54:43.902Z,2.60
2022-08-17T16:57:12.947Z,2.67
2022-08-17T16:59:43.933Z,2.72
2022-08-17T17:02:16.991Z,2.70
2022-08-17T17:04:54.416Z,2.63
2022-08-17T17:07:49.549Z,2.47
2022-08-17T17:10:27.213Z,2.47
2022-08-17T17:13:01.586Z,2.60
2022-08-17T17:15:48.165Z,2.33
2022-08-17T17:18:17.486Z,2.42
2022-08-17T17:20:55.028Z,2.45
2022-08-17T17:23:44.004Z,2.55
2022-08-17T17:26:48.255Z,2.38
2022-08-17T17:29:47.150Z,2.77
2022-08-17T17:32:26.281Z,2.72
2022-08-17T17:35:04.957Z,2.42
2022-08-17T17:37:36.583Z,2.50
2022-08-17T17:40:14.644Z,2.50
2022-08-17T17:42:45.700Z,2.55
2022-08-17T17:45:20.805Z,2.30
2022-08-17T17:47:48.981Z,1.88
2022-08-17T17:50:20.264Z,2.00
2022-08-17T17:53:02.033Z,2.17
2022-08-17T17:55:46.355Z,2.35
2022-08-17T17:58:43.787Z,2.15
2022-08-17T18:01:31.011Z,2.00
2022-08-17T18:04:20.896Z,1.90
2022-08-17T18:07:10.098Z,2.40
2022-08-17T18:10:19.690Z,2.33
2022-08-17T18:13:14.954Z,2.22
2022-08-17T18:15:50.961Z,2.17
2022-08-17T18:18:37.603Z,2.15
2022-08-17T18:21:15.497Z,2.92
2022-08-17T18:24:07.386Z,2.15
2022-08-17T18:26:45.395Z,1.77
2022-08-17T18:29:30.153Z,2.05
2022-08-17T18:32:27.877Z,2.17
2022-08-17T18:34:59.963Z,2.05
2022-08-17T18:37:40.382Z,1.83
2022-08-17T18:40:33.613Z,1.92
2022-08-17T18:43:12.345Z,2.30
2022-08-17T18:45:47.796Z,2.20
2022-08-17T18:48:33.512Z,2.65
2022-08-17T18:51:40.292Z,2.33
2022-08-17T18:54:19.441Z,2.10
2022-08-17T18:56:55.527Z,2.40
2022-08-17T18:59:34.316Z,2.50
2022-08-17T19:02:34.598Z,2.30
2022-08-17T19:05:13.147Z,2.13
2022-08-17T19:07:45.039Z,1.60
2022-08-17T19:10:24.300Z,2.10
2022-08-17T19:13:00.204Z,1.95
2022-08-17T19:15:36.177Z,1.95
2022-08-17T19:18:16.056Z,2.20
2022-08-17T19:20:54.735Z,2.00
2022-08-17T19:23:29.855Z,2.13
2022-08-17T19:26:01.576Z,1.83
2022-08-17T19:28:38.450Z,1.38
2022-08-17T19:31:20.391Z,1.42
2022-08-17T19:33:48.333Z,1.35
2022-08-17T19:36:37.049Z,0.80
2022-08-17T19:39:17.397Z,0.68
2022-08-17T19:41:58.613Z,0.63
2022-08-17T19:44:52.611Z,0.85
2022-08-17T19:47:53.784Z,1.23
2022-08-17T19:50:32.001Z,1.48
2022-08-17T19:53:10.887Z,1.02
2022-08-17T19:55:53.364Z,0.95
2022-08-17T19:58:40.633Z,1.02
2022-08-17T20:01:21.932Z,0.82
2022-08-17T20:03:58.863Z,0.40
2022-08-17T20:06:33.397Z,0.32
2022-08-17T20:09:17.336Z,0.55
2022-08-17T20:11:55.700Z,1.13
2022-08-17T20:14:33.822Z,0.30
2022-08-17T20:17:03.315Z,0.45
2022-08-17T20:19:51.840Z,0.50
2022-08-17T20:22:30.689Z,0.60
2022-08-17T20:25:14.730Z,1.10
2022-08-17T20:27:54.638Z,0.75
2022-08-17T20:30:38.506Z,0.63
2022-08-17T20:33:22.513Z,0.95
2022-08-17T20:36:13.009Z,1.10
2022-08-17T20:38:46.961Z,0.40
2022-08-17T20:41:22.548Z,0.95
2022-08-17T20:44:06.122Z,0.95
2022-08-17T20:47:02.159Z,0.98
2022-08-17T20:49:50.105Z,0.77
2022-08-17T20:52:51.730Z,1.20
2022-08-17T20:55:55.471Z,0.82
2022-08-17T20:58:48.284Z,0.70
2022-08-17T21:01:34.849Z,0.75
2022-08-17T21:04:08.942Z,1.25
2022-08-17T21:07:29.947Z,0.77
2022-08-17T21:10:14.115Z,0.90
2022-08-17T21:12:47.885Z,1.00
2022-08-17T21:15:34.859Z,0.60
2022-08-17T21:18:16.350Z,0.82
2022-08-17T21:21:07.862Z,0.68
2022-08-17T21:24:11.828Z,0.77
2022-08-17T21:26:56.021Z,0.85
2022-08-17T21:29:31.447Z,0.83
2022-08-17T21:32:24.618Z,0.80
2022-08-17T21:35:28.862Z,0.80
2022-08-17T21:38:04.907Z,0.93
2022-08-17T21:40:35.372Z,0.77
2022-08-17T21:43:26.395Z,1.42
2022-08-17T21:46:03.532Z,0.90
2022-08-17T21:48:41.873Z,0.77
2022-08-17T21:51:18.258Z,0.60
2022-08-17T21:53:51.115Z,1.10
2022-08-17T21:56:30.166Z,1.27
2022-08-17T21:59:02.503Z,0.68
2022-08-17T22:01:35.182Z,0.98
2022-08-17T22:04:19.935Z,0.52
2022-08-17T22:06:57.249Z,0.52
2022-08-17T22:09:29.228Z,1.23
2022-08-17T22:12:11.069Z,0.80
2022-08-17T22:14:51.482Z,1.00
2022-08-17T22:17:25.041Z,0.80
2022-08-17T22:19:57.366Z,0.95
2022-08-17T22:22:33.564Z,1.17
2022-08-17T22:25:06.761Z,0.80
2022-08-17T22:27:57.112Z,1.00
2022-08-17T22:30:37.874Z,0.93
2022-08-17T22:33:36.785Z,1.23
2022-08-17T22:36:29.804Z,1.20
2022-08-17T22:39:00.219Z,1.20
2022-08-17T22:41:35.466Z,0.98
2022-08-17T22:44:17.940Z,1.10
2022-08-17T22:47:11.256Z,1.02
2022-08-17T22:49:53.625Z,0.85
2022-08-17T22:52:35.541Z,1.63
2022-08-17T22:55:36.035Z,1.27
2022-08-17T22:58:30.211Z,1.20
2022-08-17T23:01:28.161Z,0.50
2022-08-17T23:03:58.891Z,0.88
2022-08-17T23:06:26.781Z,0.90
2022-08-17T23:08:57.863Z,1.08
2022-08-17T23:11:42.815Z,0.88
2022-08-17T23:14:21.429Z,1.17
2022-08-17T23:16:51.261Z,1.20
2022-08-17T23:19:22.669Z,0.68
2022-08-17T23:21:55.349Z,1.13
2022-08-17T23:24:26.951Z,1.27
2022-08-17T23:26:56.930Z,1.10
2022-08-17T23:29:25.542Z,1.52
2022-08-17T23:31:55.300Z,1.92
2022-08-17T23:34:24.170Z,1.48
2022-08-17T23:36:53.395Z,1.48
2022-08-17T23:39:27.749Z,1.33
2022-08-17T23:41:59.817Z,1.50
2022-08-17T23:44:30.933Z,1.33
2022-08-17T23:47:00.096Z,1.70
2022-08-17T23:49:28.632Z,1.50
2022-08-17T23:51:56.539Z,1.25
2022-08-17T23:54:31.301Z,1.38
2022-08-17T23:56:59.410Z,1.70
2022-08-17T23:59:27.870Z,0.98
